Portada
METAR-TAF:

METAR-TAF

Aeropuertos :

Aeropuerto Internacional Amata Kabua

Majuro, Islas Marshall

latitud: 07-04N, longitud: 171-17E, altitud: 2 m

Observación

El informe se hizo hace 2 horas y 38 minutos, a las 00:52 UTC
Viento 6 kt del noroeste
Temperatura 31°C
Humedad 75%
Presión 1008 hPa
Visibilidad: 24.1 km
Escasas nubes a una altura de 1500 ft
Nubes dispersas a una altura de 5000 ft
Cielo nuboso a una altura de 30000 ft

METAR: PKMJ 220052Z 32006KT 15SM FEW015 SCT050 BKN300 31/26 A2978 RMK LAST

Hora: 15:30 (03:30 UTC)

Pronóstico

El informe se hizo hace 4 horas y 10 minutos, a las 23:20 UTC
Pronóstico válido del 22 a las 00 UTC al 22 a las 24 UTC
Viento 7 kt del norte-noreste
Visibilidad: 10 km
Nubes dispersas a una altura de 1500 ft
Nubes dispersas a una altura de 5000 ft
Cielo nuboso a una altura de 30000 ft
chaparrones en las proximidades

TAF: PKMJ 212320Z 2200/2224 03007KT P6SM VCSH SCT015 SCT050 BKN300

Observaciones y pronósticos meteorológicos de más de 4000 aeropuertos (mensajes METAR y TAF).

Los puntos amarillos y rojos representan las estaciones disponibles.

Ponga el ratón en el punto deseado para ver el nombre de la estación.

Haga clic para ver las observaciones y los pronósticos meteorológicos.

Para cambiar el mapa : haga clic en los botones verdes con una cruz de color negro para hacer un zoom, en el botón verde con un guión para alejar o en las flechas verdes para mapas adyacentes.


METAR-TAF: